sensor_id;sensor_type;location;lat;lon;timestamp;pressure;altitude;pressure_sealevel;temperature;humidity
34506;BME280;20748;42.632;23.198;2023-12-20T00:01:48;92280.53;;;-0.26;100.00
34506;BME280;20748;42.632;23.198;2023-12-20T00:04:25;92279.53;;;-0.25;100.00
34506;BME280;20748;42.632;23.198;2023-12-20T00:06:59;92276.06;;;-0.31;100.00
34506;BME280;20748;42.632;23.198;2023-12-20T00:09:34;92281.09;;;-0.24;100.00
34506;BME280;20748;42.632;23.198;2023-12-20T00:12:08;92276.94;;;-0.37;100.00
34506;BME280;20748;42.632;23.198;2023-12-20T00:14:41;92271.16;;;-0.33;100.00
34506;BME280;20748;42.632;23.198;2023-12-20T00:17:17;92271.81;;;-0.37;100.00
34506;BME280;20748;42.632;23.198;2023-12-20T00:19:52;92267.91;;;-0.40;100.00
34506;BME280;20748;42.632;23.198;2023-12-20T00:22:25;92267.72;;;-0.38;100.00
34506;BME280;20748;42.632;23.198;2023-12-20T00:24:59;92252.09;;;-0.37;100.00
34506;BME280;20748;42.632;23.198;2023-12-20T00:27:33;92253.56;;;-0.29;100.00
34506;BME280;20748;42.632;23.198;2023-12-20T00:30:10;92253.31;;;-0.28;100.00
34506;BME280;20748;42.632;23.198;2023-12-20T00:32:48;92258.69;;;-0.29;100.00
34506;BME280;20748;42.632;23.198;2023-12-20T00:35:25;92246.88;;;-0.42;100.00
34506;BME280;20748;42.632;23.198;2023-12-20T00:38:04;92234.38;;;-0.38;100.00
34506;BME280;20748;42.632;23.198;2023-12-20T00:40:41;92229.94;;;-0.43;100.00
34506;BME280;20748;42.632;23.198;2023-12-20T00:43:15;92225.44;;;-0.48;100.00
34506;BME280;20748;42.632;23.198;2023-12-20T00:45:49;92219.09;;;-0.45;100.00
34506;BME280;20748;42.632;23.198;2023-12-20T00:48:23;92221.56;;;-0.50;100.00
34506;BME280;20748;42.632;23.198;2023-12-20T00:51:00;92223.69;;;-0.47;100.00
34506;BME280;20748;42.632;23.198;2023-12-20T00:53:38;92218.88;;;-0.44;100.00
34506;BME280;20748;42.632;23.198;2023-12-20T00:56:15;92225.81;;;-0.44;100.00
34506;BME280;20748;42.632;23.198;2023-12-20T00:58:48;92223.91;;;-0.49;100.00
34506;BME280;20748;42.632;23.198;2023-12-20T01:01:22;92214.75;;;-0.45;100.00
34506;BME280;20748;42.632;23.198;2023-12-20T01:03:57;92210.06;;;-0.48;100.00
34506;BME280;20748;42.632;23.198;2023-12-20T01:06:35;92211.88;;;-0.48;100.00
34506;BME280;20748;42.632;23.198;2023-12-20T01:09:09;92208.50;;;-0.49;100.00
34506;BME280;20748;42.632;23.198;2023-12-20T01:11:43;92208.09;;;-0.46;100.00
34506;BME280;20748;42.632;23.198;2023-12-20T01:14:16;92198.47;;;-0.50;100.00
34506;BME280;20748;42.632;23.198;2023-12-20T01:16:50;92202.63;;;-0.49;100.00
34506;BME280;20748;42.632;23.198;2023-12-20T01:19:24;92199.06;;;-0.48;100.00
34506;BME280;20748;42.632;23.198;2023-12-20T01:22:00;92198.72;;;-0.52;100.00
34506;BME280;20748;42.632;23.198;2023-12-20T01:24:37;92184.56;;;-0.66;100.00
34506;BME280;20748;42.632;23.198;2023-12-20T01:27:11;92194.16;;;-0.62;100.00
34506;BME280;20748;42.632;23.198;2023-12-20T01:29:46;92183.13;;;-0.62;100.00
34506;BME280;20748;42.632;23.198;2023-12-20T01:32:20;92183.13;;;-0.62;100.00
34506;BME280;20748;42.632;23.198;2023-12-20T01:34:54;92173.75;;;-0.57;100.00
34506;BME280;20748;42.632;23.198;2023-12-20T01:37:37;92174.97;;;-0.59;100.00
34506;BME280;20748;42.632;23.198;2023-12-20T01:40:15;92168.19;;;-0.65;100.00
34506;BME280;20748;42.632;23.198;2023-12-20T01:42:58;92166.75;;;-0.73;99.83
34506;BME280;20748;42.632;23.198;2023-12-20T01:45:31;92161.09;;;-0.87;100.00
34506;BME280;20748;42.632;23.198;2023-12-20T01:48:08;92165.41;;;-0.88;100.00
34506;BME280;20748;42.632;23.198;2023-12-20T01:50:44;92162.97;;;-0.95;100.00
34506;BME280;20748;42.632;23.198;2023-12-20T01:53:21;92153.16;;;-0.86;99.97
34506;BME280;20748;42.632;23.198;2023-12-20T01:56:01;92141.34;;;-0.87;100.00
34506;BME280;20748;42.632;23.198;2023-12-20T01:58:37;92131.56;;;-0.90;99.73
34506;BME280;20748;42.632;23.198;2023-12-20T02:01:12;92142.81;;;-0.91;100.00
34506;BME280;20748;42.632;23.198;2023-12-20T02:03:47;92138.78;;;-0.87;100.00
34506;BME280;20748;42.632;23.198;2023-12-20T02:06:21;92134.00;;;-0.83;99.77
34506;BME280;20748;42.632;23.198;2023-12-20T02:09:02;92131.69;;;-0.85;100.00
34506;BME280;20748;42.632;23.198;2023-12-20T02:11:51;92127.09;;;-0.83;100.00
34506;BME280;20748;42.632;23.198;2023-12-20T02:14:24;92119.63;;;-0.84;100.00
34506;BME280;20748;42.632;23.198;2023-12-20T02:16:59;92122.31;;;-0.91;100.00
34506;BME280;20748;42.632;23.198;2023-12-20T02:19:35;92112.50;;;-0.94;100.00
34506;BME280;20748;42.632;23.198;2023-12-20T02:22:11;92111.41;;;-0.98;100.00
34506;BME280;20748;42.632;23.198;2023-12-20T02:24:45;92101.84;;;-1.03;100.00
34506;BME280;20748;42.632;23.198;2023-12-20T02:27:21;92098.59;;;-0.98;100.00
34506;BME280;20748;42.632;23.198;2023-12-20T02:29:58;92097.59;;;-0.97;100.00
34506;BME280;20748;42.632;23.198;2023-12-20T02:32:34;92097.03;;;-0.99;100.00
34506;BME280;20748;42.632;23.198;2023-12-20T02:35:08;92087.00;;;-1.01;100.00
34506;BME280;20748;42.632;23.198;2023-12-20T02:37:45;92087.03;;;-1.13;100.00
34506;BME280;20748;42.632;23.198;2023-12-20T02:40:19;92091.16;;;-1.24;100.00
34506;BME280;20748;42.632;23.198;2023-12-20T02:42:53;92089.03;;;-1.27;100.00
34506;BME280;20748;42.632;23.198;2023-12-20T02:45:26;92074.22;;;-1.25;100.00
34506;BME280;20748;42.632;23.198;2023-12-20T02:48:03;92089.13;;;-1.10;100.00
34506;BME280;20748;42.632;23.198;2023-12-20T02:50:38;92097.28;;;-1.13;100.00
34506;BME280;20748;42.632;23.198;2023-12-20T02:53:15;92091.25;;;-1.18;100.00
34506;BME280;20748;42.632;23.198;2023-12-20T02:55:48;92089.94;;;-1.21;99.44
34506;BME280;20748;42.632;23.198;2023-12-20T02:58:27;92092.94;;;-1.24;98.97
34506;BME280;20748;42.632;23.198;2023-12-20T03:01:01;92093.72;;;-1.24;99.06
34506;BME280;20748;42.632;23.198;2023-12-20T03:03:36;92088.81;;;-1.25;98.87
34506;BME280;20748;42.632;23.198;2023-12-20T03:06:16;92083.47;;;-1.24;99.64
34506;BME280;20748;42.632;23.198;2023-12-20T03:08:55;92077.78;;;-1.26;100.00
34506;BME280;20748;42.632;23.198;2023-12-20T03:11:28;92082.03;;;-1.31;100.00
34506;BME280;20748;42.632;23.198;2023-12-20T03:14:03;92082.25;;;-1.33;100.00
34506;BME280;20748;42.632;23.198;2023-12-20T03:16:38;92088.47;;;-1.29;100.00
34506;BME280;20748;42.632;23.198;2023-12-20T03:19:12;92082.25;;;-1.33;100.00
34506;BME280;20748;42.632;23.198;2023-12-20T03:21:46;92082.16;;;-1.26;100.00
34506;BME280;20748;42.632;23.198;2023-12-20T03:24:21;92074.47;;;-1.26;100.00
34506;BME280;20748;42.632;23.198;2023-12-20T03:26:55;92072.66;;;-1.26;100.00
34506;BME280;20748;42.632;23.198;2023-12-20T03:29:28;92064.75;;;-1.24;100.00
34506;BME280;20748;42.632;23.198;2023-12-20T03:32:05;92066.56;;;-1.37;100.00
34506;BME280;20748;42.632;23.198;2023-12-20T03:34:41;92064.22;;;-1.50;98.98
34506;BME280;20748;42.632;23.198;2023-12-20T03:37:18;92054.66;;;-1.43;97.43
34506;BME280;20748;42.632;23.198;2023-12-20T03:39:53;92057.44;;;-1.56;98.03
34506;BME280;20748;42.632;23.198;2023-12-20T03:42:27;92055.31;;;-1.59;98.28
34506;BME280;20748;42.632;23.198;2023-12-20T03:45:01;92065.41;;;-1.65;99.36
34506;BME280;20748;42.632;23.198;2023-12-20T03:47:35;92058.50;;;-1.76;100.00
34506;BME280;20748;42.632;23.198;2023-12-20T03:50:09;92057.41;;;-1.68;100.00
34506;BME280;20748;42.632;23.198;2023-12-20T03:52:42;92058.63;;;-1.71;100.00
34506;BME280;20748;42.632;23.198;2023-12-20T03:55:18;92059.41;;;-1.70;100.00
34506;BME280;20748;42.632;23.198;2023-12-20T03:57:57;92065.00;;;-1.62;100.00
34506;BME280;20748;42.632;23.198;2023-12-20T04:03:51;92050.94;;;-1.83;100.00
34506;BME280;20748;42.632;23.198;2023-12-20T04:06:28;92048.81;;;-1.86;100.00
34506;BME280;20748;42.632;23.198;2023-12-20T04:09:03;92044.94;;;-1.77;100.00
34506;BME280;20748;42.632;23.198;2023-12-20T04:11:38;92044.63;;;-1.80;99.73
34506;BME280;20748;42.632;23.198;2023-12-20T04:14:11;92030.16;;;-1.74;99.31
34506;BME280;20748;42.632;23.198;2023-12-20T04:16:47;92037.91;;;-1.81;99.27
34506;BME280;20748;42.632;23.198;2023-12-20T04:19:21;92032.78;;;-1.93;99.35
34506;BME280;20748;42.632;23.198;2023-12-20T04:21:57;92036.13;;;-1.93;99.50
34506;BME280;20748;42.632;23.198;2023-12-20T04:24:31;92031.47;;;-1.96;99.86
34506;BME280;20748;42.632;23.198;2023-12-20T04:27:11;92033.25;;;-1.84;99.66
34506;BME280;20748;42.632;23.198;2023-12-20T04:29:46;92030.56;;;-1.78;100.00
34506;BME280;20748;42.632;23.198;2023-12-20T04:32:24;92017.91;;;-1.84;100.00
34506;BME280;20748;42.632;23.198;2023-12-20T04:34:59;92006.44;;;-1.94;100.00
34506;BME280;20748;42.632;23.198;2023-12-20T04:37:33;92012.88;;;-2.03;99.72
34506;BME280;20748;42.632;23.198;2023-12-20T04:40:07;92016.06;;;-2.08;99.32
34506;BME280;20748;42.632;23.198;2023-12-20T04:42:47;92011.53;;;-2.06;100.00
34506;BME280;20748;42.632;23.198;2023-12-20T04:45:21;92002.31;;;-2.07;100.00
34506;BME280;20748;42.632;23.198;2023-12-20T04:47:58;92006.66;;;-1.95;100.00
34506;BME280;20748;42.632;23.198;2023-12-20T04:50:32;92007.22;;;-1.93;100.00
34506;BME280;20748;42.632;23.198;2023-12-20T04:53:05;91997.53;;;-1.91;100.00
34506;BME280;20748;42.632;23.198;2023-12-20T04:55:43;91997.44;;;-1.84;100.00
34506;BME280;20748;42.632;23.198;2023-12-20T04:58:18;91995.66;;;-1.84;100.00
34506;BME280;20748;42.632;23.198;2023-12-20T05:00:52;91997.91;;;-1.76;100.00
34506;BME280;20748;42.632;23.198;2023-12-20T05:03:25;91997.69;;;-1.74;100.00
34506;BME280;20748;42.632;23.198;2023-12-20T05:06:04;91995.00;;;-1.67;100.00
34506;BME280;20748;42.632;23.198;2023-12-20T05:08:38;91994.66;;;-1.71;100.00
34506;BME280;20748;42.632;23.198;2023-12-20T05:11:13;91989.88;;;-1.67;100.00
34506;BME280;20748;42.632;23.198;2023-12-20T05:13:53;91991.22;;;-1.65;100.00
34506;BME280;20748;42.632;23.198;2023-12-20T05:16:27;91991.13;;;-1.58;100.00
34506;BME280;20748;42.632;23.198;2023-12-20T05:19:01;91977.31;;;-1.57;100.00
34506;BME280;20748;42.632;23.198;2023-12-20T05:21:39;91967.88;;;-1.56;100.00
34506;BME280;20748;42.632;23.198;2023-12-20T05:24:17;91971.72;;;-1.54;100.00
34506;BME280;20748;42.632;23.198;2023-12-20T05:26:51;91978.44;;;-1.53;100.00
34506;BME280;20748;42.632;23.198;2023-12-20T05:29:27;91969.09;;;-1.59;100.00
34506;BME280;20748;42.632;23.198;2023-12-20T05:32:03;91967.66;;;-1.67;99.67
34506;BME280;20748;42.632;23.198;2023-12-20T05:34:38;91970.53;;;-1.75;98.51
34506;BME280;20748;42.632;23.198;2023-12-20T05:37:11;91963.09;;;-1.77;97.96
34506;BME280;20748;42.632;23.198;2023-12-20T05:39:50;91959.75;;;-1.77;97.03
34506;BME280;20748;42.632;23.198;2023-12-20T05:42:25;91962.19;;;-1.94;95.70
34506;BME280;20748;42.632;23.198;2023-12-20T05:45:01;91955.06;;;-1.92;94.81
34506;BME280;20748;42.632;23.198;2023-12-20T05:47:35;91958.94;;;-2.13;95.12
34506;BME280;20748;42.632;23.198;2023-12-20T05:50:11;91950.28;;;-2.24;95.03
34506;BME280;20748;42.632;23.198;2023-12-20T05:52:46;91955.38;;;-2.24;95.14
34506;BME280;20748;42.632;23.198;2023-12-20T05:55:20;91952.59;;;-2.23;94.33
34506;BME280;20748;42.632;23.198;2023-12-20T05:58:01;91952.47;;;-2.40;94.05
34506;BME280;20748;42.632;23.198;2023-12-20T06:00:41;91955.09;;;-2.47;94.27
34506;BME280;20748;42.632;23.198;2023-12-20T06:03:16;91953.00;;;-2.50;94.18
34506;BME280;20748;42.632;23.198;2023-12-20T06:05:52;91950.13;;;-2.72;94.97
34506;BME280;20748;42.632;23.198;2023-12-20T06:08:44;91942.19;;;-2.64;95.31
34506;BME280;20748;42.632;23.198;2023-12-20T06:11:18;91941.50;;;-2.71;94.54
34506;BME280;20748;42.632;23.198;2023-12-20T06:13:52;91942.13;;;-2.76;94.57
34506;BME280;20748;42.632;23.198;2023-12-20T06:16:27;91941.50;;;-2.71;95.32
34506;BME280;20748;42.632;23.198;2023-12-20T06:19:06;91947.41;;;-2.59;96.03
34506;BME280;20748;42.632;23.198;2023-12-20T06:21:40;91950.44;;;-2.50;96.54
34506;BME280;20748;42.632;23.198;2023-12-20T06:24:22;91946.22;;;-2.44;97.06
34506;BME280;20748;42.632;23.198;2023-12-20T06:26:59;91948.34;;;-2.41;97.47
34506;BME280;20748;42.632;23.198;2023-12-20T06:29:33;91948.97;;;-2.46;98.35
34506;BME280;20748;42.632;23.198;2023-12-20T06:32:09;91934.78;;;-2.41;98.25
34506;BME280;20748;42.632;23.198;2023-12-20T06:34:47;91948.22;;;-2.34;98.74
34506;BME280;20748;42.632;23.198;2023-12-20T06:37:21;91942.16;;;-2.33;98.21
34506;BME280;20748;42.632;23.198;2023-12-20T06:39:58;91939.81;;;-2.23;98.79
34506;BME280;20748;42.632;23.198;2023-12-20T06:42:32;91949.38;;;-2.18;98.66
34506;BME280;20748;42.632;23.198;2023-12-20T06:45:20;91943.38;;;-2.24;99.30
34506;BME280;20748;42.632;23.198;2023-12-20T06:47:55;91934.16;;;-2.25;99.53
34506;BME280;20748;42.632;23.198;2023-12-20T06:50:29;91939.16;;;-2.18;98.83
34506;BME280;20748;42.632;23.198;2023-12-20T06:53:07;91932.59;;;-2.14;99.00
34506;BME280;20748;42.632;23.198;2023-12-20T06:55:46;91940.59;;;-2.10;98.83
34506;BME280;20748;42.632;23.198;2023-12-20T06:58:19;91946.84;;;-2.06;98.79
34506;BME280;20748;42.632;23.198;2023-12-20T07:00:54;91935.38;;;-2.16;98.52
34506;BME280;20748;42.632;23.198;2023-12-20T07:03:30;91941.81;;;-2.13;98.17
34506;BME280;20748;42.632;23.198;2023-12-20T07:06:04;91941.47;;;-2.17;98.19
34506;BME280;20748;42.632;23.198;2023-12-20T07:08:40;91927.25;;;-2.12;98.04
34506;BME280;20748;42.632;23.198;2023-12-20T07:11:16;91930.91;;;-2.20;98.14
34506;BME280;20748;42.632;23.198;2023-12-20T07:13:52;91922.81;;;-2.17;97.61
34506;BME280;20748;42.632;23.198;2023-12-20T07:16:34;91919.59;;;-2.24;96.80
34506;BME280;20748;42.632;23.198;2023-12-20T07:19:28;91918.47;;;-2.28;95.49
34506;BME280;20748;42.632;23.198;2023-12-20T07:22:05;91915.16;;;-2.17;95.39
34506;BME280;20748;42.632;23.198;2023-12-20T07:24:39;91911.69;;;-2.23;95.79
34506;BME280;20748;42.632;23.198;2023-12-20T07:27:13;91902.13;;;-2.27;95.32
34506;BME280;20748;42.632;23.198;2023-12-20T07:29:46;91902.69;;;-2.25;95.31
34506;BME280;20748;42.632;23.198;2023-12-20T07:32:20;91900.25;;;-2.20;95.42
34506;BME280;20748;42.632;23.198;2023-12-20T07:34:55;91908.56;;;-2.13;95.71
34506;BME280;20748;42.632;23.198;2023-12-20T07:37:29;91898.72;;;-2.09;95.79
34506;BME280;20748;42.632;23.198;2023-12-20T07:40:06;91901.72;;;-2.24;96.73
34506;BME280;20748;42.632;23.198;2023-12-20T07:42:42;91891.81;;;-2.09;96.93
34506;BME280;20748;42.632;23.198;2023-12-20T07:45:20;91897.50;;;-2.07;97.59
34506;BME280;20748;42.632;23.198;2023-12-20T07:47:56;91898.03;;;-2.05;97.38
34506;BME280;20748;42.632;23.198;2023-12-20T07:50:33;91894.81;;;-2.00;98.16
34506;BME280;20748;42.632;23.198;2023-12-20T07:53:06;91896.38;;;-1.87;98.46
34506;BME280;20748;42.632;23.198;2023-12-20T07:55:40;91885.66;;;-1.72;98.38
34506;BME280;20748;42.632;23.198;2023-12-20T07:58:18;91897.66;;;-1.60;98.69
34506;BME280;20748;42.632;23.198;2023-12-20T08:00:52;91893.28;;;-1.48;99.18
34506;BME280;20748;42.632;23.198;2023-12-20T08:03:25;91889.47;;;-1.33;100.00
34506;BME280;20748;42.632;23.198;2023-12-20T08:06:01;91876.63;;;-1.22;100.00
34506;BME280;20748;42.632;23.198;2023-12-20T08:08:35;91879.81;;;-1.02;100.00
34506;BME280;20748;42.632;23.198;2023-12-20T08:11:09;91882.13;;;-1.01;100.00
34506;BME280;20748;42.632;23.198;2023-12-20T08:13:43;91886.06;;;-0.81;100.00
34506;BME280;20748;42.632;23.198;2023-12-20T08:16:19;91876.53;;;-0.69;100.00
34506;BME280;20748;42.632;23.198;2023-12-20T08:18:52;91888.00;;;-0.71;99.41
34506;BME280;20748;42.632;23.198;2023-12-20T08:21:28;91877.94;;;-0.61;99.85
34506;BME280;20748;42.632;23.198;2023-12-20T08:24:02;91872.03;;;-0.44;100.00
34506;BME280;20748;42.632;23.198;2023-12-20T08:26:36;91873.91;;;-0.39;100.00
34506;BME280;20748;42.632;23.198;2023-12-20T08:29:10;91877.06;;;-0.32;100.00
34506;BME280;20748;42.632;23.198;2023-12-20T08:31:54;91872.03;;;-0.27;99.96
34506;BME280;20748;42.632;23.198;2023-12-20T08:34:28;91870.31;;;-0.21;99.17
34506;BME280;20748;42.632;23.198;2023-12-20T08:37:04;91865.50;;;-0.18;99.68
34506;BME280;20748;42.632;23.198;2023-12-20T08:39:38;91861.22;;;-0.12;99.87
34506;BME280;20748;42.632;23.198;2023-12-20T08:42:18;91866.13;;;-0.10;99.35
34506;BME280;20748;42.632;23.198;2023-12-20T08:44:52;91854.63;;;-0.08;98.58
34506;BME280;20748;42.632;23.198;2023-12-20T08:47:25;91850.31;;;-0.02;97.44
34506;BME280;20748;42.632;23.198;2023-12-20T08:50:02;91842.38;;;-0.01;96.84
34506;BME280;20748;42.632;23.198;2023-12-20T08:52:41;91838.34;;;0.04;97.54
34506;BME280;20748;42.632;23.198;2023-12-20T08:55:15;91840.91;;;0.04;98.12
34506;BME280;20748;42.632;23.198;2023-12-20T08:57:50;91835.16;;;-0.04;97.49
34506;BME280;20748;42.632;23.198;2023-12-20T09:00:24;91828.03;;;-0.02;98.10
34506;BME280;20748;42.632;23.198;2023-12-20T09:03:05;91828.44;;;0.12;98.71
34506;BME280;20748;42.632;23.198;2023-12-20T09:05:41;91820.88;;;0.23;98.93
34506;BME280;20748;42.632;23.198;2023-12-20T09:08:19;91810.19;;;0.31;98.80
34506;BME280;20748;42.632;23.198;2023-12-20T09:10:55;91811.00;;;0.37;97.57
34506;BME280;20748;42.632;23.198;2023-12-20T09:13:30;91804.97;;;0.48;95.98
34506;BME280;20748;42.632;23.198;2023-12-20T09:16:05;91799.38;;;0.51;97.40
34506;BME280;20748;42.632;23.198;2023-12-20T09:18:42;91784.56;;;0.59;98.34
34506;BME280;20748;42.632;23.198;2023-12-20T09:21:18;91775.16;;;0.70;98.38
34506;BME280;20748;42.632;23.198;2023-12-20T09:23:53;91766.88;;;0.62;97.56
34506;BME280;20748;42.632;23.198;2023-12-20T09:26:27;91751.94;;;0.87;93.74
34506;BME280;20748;42.632;23.198;2023-12-20T09:29:03;91750.28;;;1.03;91.51
34506;BME280;20748;42.632;23.198;2023-12-20T09:31:41;91751.97;;;1.19;93.49
34506;BME280;20748;42.632;23.198;2023-12-20T09:34:19;91741.53;;;1.37;91.11
34506;BME280;20748;42.632;23.198;2023-12-20T09:36:53;91730.56;;;1.52;90.64
34506;BME280;20748;42.632;23.198;2023-12-20T09:39:28;91732.97;;;1.64;89.71
34506;BME280;20748;42.632;23.198;2023-12-20T09:42:06;91732.00;;;1.80;89.29
34506;BME280;20748;42.632;23.198;2023-12-20T09:44:40;91725.63;;;1.93;89.27
34506;BME280;20748;42.632;23.198;2023-12-20T09:47:19;91705.88;;;2.14;87.31
34506;BME280;20748;42.632;23.198;2023-12-20T09:49:54;91713.13;;;2.33;88.52
34506;BME280;20748;42.632;23.198;2023-12-20T09:52:31;91693.66;;;2.63;88.67
34506;BME280;20748;42.632;23.198;2023-12-20T09:55:10;91689.53;;;3.04;84.56
34506;BME280;20748;42.632;23.198;2023-12-20T09:57:46;91679.19;;;3.40;82.77
34506;BME280;20748;42.632;23.198;2023-12-20T10:00:21;91668.00;;;3.66;82.26
34506;BME280;20748;42.632;23.198;2023-12-20T10:02:59;91682.88;;;3.95;80.77
34506;BME280;20748;42.632;23.198;2023-12-20T10:05:40;91677.63;;;4.21;78.54
34506;BME280;20748;42.632;23.198;2023-12-20T10:08:23;91667.13;;;4.47;77.15
34506;BME280;20748;42.632;23.198;2023-12-20T10:11:02;91663.63;;;4.72;76.79
34506;BME280;20748;42.632;23.198;2023-12-20T10:13:39;91672.69;;;5.04;74.96
34506;BME280;20748;42.632;23.198;2023-12-20T10:16:17;91665.19;;;5.32;74.74
34506;BME280;20748;42.632;23.198;2023-12-20T10:18:54;91662.31;;;5.63;72.60
34506;BME280;20748;42.632;23.198;2023-12-20T10:21:32;91662.75;;;5.95;71.38
34506;BME280;20748;42.632;23.198;2023-12-20T10:24:06;91662.13;;;6.09;71.81
34506;BME280;20748;42.632;23.198;2023-12-20T10:26:41;91654.91;;;6.25;71.64
34506;BME280;20748;42.632;23.198;2023-12-20T10:29:17;91658.41;;;6.34;70.02
34506;BME280;20748;42.632;23.198;2023-12-20T10:31:58;91647.06;;;6.49;70.19
34506;BME280;20748;42.632;23.198;2023-12-20T10:34:32;91648.69;;;6.45;68.76
34506;BME280;20748;42.632;23.198;2023-12-20T10:37:06;91638.03;;;6.47;69.48
34506;BME280;20748;42.632;23.198;2023-12-20T10:39:44;91647.28;;;6.53;69.96
34506;BME280;20748;42.632;23.198;2023-12-20T10:42:27;91632.22;;;6.55;69.24
34506;BME280;20748;42.632;23.198;2023-12-20T10:45:06;91631.56;;;6.63;68.65
34506;BME280;20748;42.632;23.198;2023-12-20T10:47:41;91630.66;;;6.73;69.98
34506;BME280;20748;42.632;23.198;2023-12-20T10:50:16;91625.91;;;6.80;69.25
34506;BME280;20748;42.632;23.198;2023-12-20T10:52:55;91625.13;;;6.80;69.17
34506;BME280;20748;42.632;23.198;2023-12-20T10:55:31;91615.34;;;6.91;69.58
34506;BME280;20748;42.632;23.198;2023-12-20T10:58:10;91616.34;;;7.09;67.67
34506;BME280;20748;42.632;23.198;2023-12-20T11:00:45;91607.06;;;7.22;66.55
34506;BME280;20748;42.632;23.198;2023-12-20T11:03:23;91603.53;;;7.46;66.41
34506;BME280;20748;42.632;23.198;2023-12-20T11:06:09;91599.59;;;7.62;65.61
34506;BME280;20748;42.632;23.198;2023-12-20T11:08:47;91600.06;;;7.78;65.70
34506;BME280;20748;42.632;23.198;2023-12-20T11:11:29;91597.03;;;7.99;62.62
34506;BME280;20748;42.632;23.198;2023-12-20T11:14:06;91596.06;;;8.09;63.77
34506;BME280;20748;42.632;23.198;2023-12-20T11:16:41;91574.19;;;8.24;63.68
34506;BME280;20748;42.632;23.198;2023-12-20T11:19:28;91576.75;;;8.38;60.42
34506;BME280;20748;42.632;23.198;2023-12-20T11:22:05;91574.00;;;8.57;59.97
34506;BME280;20748;42.632;23.198;2023-12-20T11:24:44;91565.69;;;8.69;59.39
34506;BME280;20748;42.632;23.198;2023-12-20T11:27:21;91545.50;;;8.75;58.91
34506;BME280;20748;42.632;23.198;2023-12-20T11:29:58;91556.44;;;8.86;58.08
34506;BME280;20748;42.632;23.198;2023-12-20T11:32:34;91545.78;;;8.96;58.15
34506;BME280;20748;42.632;23.198;2023-12-20T11:35:18;91536.06;;;9.11;59.30
34506;BME280;20748;42.632;23.198;2023-12-20T11:37:53;91532.28;;;9.17;59.22
34506;BME280;20748;42.632;23.198;2023-12-20T11:40:27;91525.38;;;9.21;59.61
34506;BME280;20748;42.632;23.198;2023-12-20T11:43:04;91531.97;;;9.27;57.97
34506;BME280;20748;42.632;23.198;2023-12-20T11:45:51;91520.53;;;9.29;56.95
34506;BME280;20748;42.632;23.198;2023-12-20T11:48:28;91518.22;;;9.27;59.27
34506;BME280;20748;42.632;23.198;2023-12-20T11:51:02;91521.44;;;9.33;56.25
34506;BME280;20748;42.632;23.198;2023-12-20T11:53:37;91504.75;;;9.25;57.68
34506;BME280;20748;42.632;23.198;2023-12-20T11:56:11;91499.56;;;9.34;55.45
34506;BME280;20748;42.632;23.198;2023-12-20T11:58:45;91498.75;;;9.24;56.76
34506;BME280;20748;42.632;23.198;2023-12-20T12:01:24;91490.66;;;9.26;56.22
34506;BME280;20748;42.632;23.198;2023-12-20T12:04:04;91477.97;;;9.33;54.66
34506;BME280;20748;42.632;23.198;2023-12-20T12:06:41;91488.38;;;9.33;55.86
34506;BME280;20748;42.632;23.198;2023-12-20T12:09:15;91473.84;;;9.41;54.63
34506;BME280;20748;42.632;23.198;2023-12-20T12:11:51;91480.44;;;9.47;54.58
34506;BME280;20748;42.632;23.198;2023-12-20T12:14:25;91469.72;;;9.40;53.64
34506;BME280;20748;42.632;23.198;2023-12-20T12:17:03;91462.50;;;9.46;55.59
34506;BME280;20748;42.632;23.198;2023-12-20T12:19:37;91459.91;;;9.46;54.87
34506;BME280;20748;42.632;23.198;2023-12-20T12:22:13;91459.91;;;9.46;54.27
34506;BME280;20748;42.632;23.198;2023-12-20T12:24:51;91453.78;;;9.50;54.54
34506;BME280;20748;42.632;23.198;2023-12-20T12:27:40;91457.94;;;9.51;54.88
34506;BME280;20748;42.632;23.198;2023-12-20T12:30:16;91449.78;;;9.44;53.96
34506;BME280;20748;42.632;23.198;2023-12-20T12:32:56;91449.03;;;9.35;54.84
34506;BME280;20748;42.632;23.198;2023-12-20T12:35:36;91442.28;;;9.25;55.72
34506;BME280;20748;42.632;23.198;2023-12-20T12:38:24;91446.81;;;9.10;56.07
34506;BME280;20748;42.632;23.198;2023-12-20T12:40:58;91455.31;;;8.84;56.75
34506;BME280;20748;42.632;23.198;2023-12-20T12:43:31;91442.56;;;8.74;57.72
34506;BME280;20748;42.632;23.198;2023-12-20T12:46:08;91449.50;;;8.56;57.42
34506;BME280;20748;42.632;23.198;2023-12-20T12:48:43;91452.19;;;8.51;56.86
34506;BME280;20748;42.632;23.198;2023-12-20T12:51:18;91446.34;;;8.45;58.37
34506;BME280;20748;42.632;23.198;2023-12-20T12:53:54;91449.06;;;8.40;56.48
34506;BME280;20748;42.632;23.198;2023-12-20T12:56:28;91445.78;;;8.25;58.47
34506;BME280;20748;42.632;23.198;2023-12-20T12:59:02;91436.97;;;8.35;58.72
34506;BME280;20748;42.632;23.198;2023-12-20T13:01:38;91437.56;;;8.32;57.89
34506;BME280;20748;42.632;23.198;2023-12-20T13:04:16;91444.03;;;8.43;56.50
34506;BME280;20748;42.632;23.198;2023-12-20T13:06:50;91443.47;;;8.46;57.40
34506;BME280;20748;42.632;23.198;2023-12-20T13:09:27;91444.16;;;8.38;56.92
34506;BME280;20748;42.632;23.198;2023-12-20T13:12:00;91443.47;;;8.46;57.77
34506;BME280;20748;42.632;23.198;2023-12-20T13:14:36;91449.69;;;8.37;57.84
34506;BME280;20748;42.632;23.198;2023-12-20T13:17:14;91449.69;;;8.37;59.76
34506;BME280;20748;42.632;23.198;2023-12-20T13:19:49;91440.16;;;8.32;58.36
34506;BME280;20748;42.632;23.198;2023-12-20T13:22:23;91449.16;;;8.26;58.56
34506;BME280;20748;42.632;23.198;2023-12-20T13:24:57;91441.78;;;8.19;62.01
34506;BME280;20748;42.632;23.198;2023-12-20T13:27:30;91440.66;;;8.11;60.63
34506;BME280;20748;42.632;23.198;2023-12-20T13:30:06;91435.13;;;8.04;60.41
34506;BME280;20748;42.632;23.198;2023-12-20T13:32:42;91440.25;;;7.95;61.51
34506;BME280;20748;42.632;23.198;2023-12-20T13:35:18;91439.28;;;7.91;61.24
34506;BME280;20748;42.632;23.198;2023-12-20T13:37:54;91446.13;;;7.87;61.72
34506;BME280;20748;42.632;23.198;2023-12-20T13:40:31;91439.13;;;7.87;60.74